Time;durP1;ratioP1;P1;durP2;ratioP2;P2;SDS_P1;SDS_P2;PMS_P1;PMS_P2;Temp;Humidity;BMP_temperature;BMP_pressure;BME280_temperature;BME280_humidity;BME280_pressure;Samples;Min_cycle;Max_cycle;Signal;HPM_P1;HPM_P2
2021/11/19 00:02:40;;;;;;;2.28;1.10;;;17.60;68.90;;;;;;10579227;28;20027;-47
2021/11/19 00:07:40;;;;;;;2.45;1.25;;;17.60;69.00;;;;;;10579227;28;20063;-47
2021/11/19 00:12:42;;;;;;;2.55;1.00;;;17.50;69.10;;;;;;10560602;28;20031;-47
2021/11/19 00:17:43;;;;;;;2.53;1.30;;;17.60;68.90;;;;;;10579173;28;20072;-47
2021/11/19 00:22:44;;;;;;;3.42;1.88;;;17.60;68.80;;;;;;10560229;28;20429;-51
2021/11/19 00:27:45;;;;;;;4.03;1.27;;;17.70;68.70;;;;;;10560186;28;20039;-47
2021/11/19 00:32:47;;;;;;;3.25;1.25;;;17.80;68.40;;;;;;10577985;28;20031;-49
2021/11/19 00:37:53;;;;;;;1.77;1.20;;;17.80;68.30;;;;;;10560074;28;20027;-48
2021/11/19 00:42:54;;;;;;;2.60;1.40;;;17.80;68.40;;;;;;10577984;28;20035;-48
2021/11/19 00:47:57;;;;;;;3.15;1.00;;;17.70;68.50;;;;;;10577814;28;20091;-47
2021/11/19 00:52:58;;;;;;;4.20;1.05;;;17.70;68.70;;;;;;10542848;28;20039;-46
2021/11/19 00:57:59;;;;;;;2.65;1.40;;;17.60;68.80;;;;;;10559697;28;20088;-47
2021/11/19 01:02:59;;;;;;;2.67;1.15;;;17.70;68.70;;;;;;10577619;28;20051;-47
2021/11/19 01:08:00;;;;;;;3.45;1.15;;;17.70;68.60;;;;;;10586213;28;20031;-47
2021/11/19 01:13:03;;;;;;;1.92;0.80;;;17.70;68.60;;;;;;10585991;28;20474;-49
2021/11/19 01:18:14;;;;;;;2.05;1.02;;;17.60;68.70;;;;;;10585729;28;20031;-49
2021/11/19 01:23:21;;;;;;;2.03;0.93;;;17.60;68.80;;;;;;10578535;28;20027;-47
2021/11/19 01:28:23;;;;;;;1.38;0.85;;;17.60;68.90;;;;;;10585490;28;20038;-49
2021/11/19 01:33:25;;;;;;;3.13;1.05;;;17.70;68.70;;;;;;10585134;28;20044;-49
2021/11/19 01:38:27;;;;;;;1.90;1.20;;;17.70;68.70;;;;;;10585087;28;20070;-50
2021/11/19 01:43:31;;;;;;;2.20;1.08;;;17.70;68.60;;;;;;10566710;28;20391;-50
2021/11/19 01:48:40;;;;;;;3.25;1.25;;;17.70;68.60;;;;;;10575209;28;20028;-50
2021/11/19 01:53:49;;;;;;;2.58;1.10;;;17.70;68.60;;;;;;10580244;28;20035;-47
2021/11/19 01:59:02;;;;;;;1.98;1.15;;;17.70;68.60;;;;;;10566946;28;20424;-50
2021/11/19 02:04:13;;;;;;;2.53;1.33;;;17.70;68.40;;;;;;10566629;28;20055;-47
2021/11/19 02:09:41;;;;;;;1.67;0.82;;;17.70;68.40;;;;;;10584054;28;20085;-49
2021/11/19 02:15:29;;;;;;;1.83;0.90;;;17.70;68.50;;;;;;10583149;28;20039;-50
2021/11/19 02:20:50;;;;;;;1.35;0.90;;;17.60;68.60;;;;;;10514134;28;20047;-49
2021/11/19 02:25:58;;;;;;;3.00;1.33;;;17.70;68.40;;;;;;10578269;28;20070;-47
2021/11/19 02:31:18;;;;;;;3.03;0.90;;;17.70;69.10;;;;;;10583177;28;20130;-49
2021/11/19 02:36:47;;;;;;;3.05;1.10;;;17.80;69.10;;;;;;10565051;28;20502;-48
2021/11/19 02:41:55;;;;;;;1.70;0.95;;;17.80;69.50;;;;;;10582525;28;20479;-51
2021/11/19 02:46:59;;;;;;;1.17;0.73;;;17.90;69.90;;;;;;10564506;28;20031;-48
2021/11/19 02:52:00;;;;;;;2.10;1.08;;;17.90;69.80;;;;;;10564418;28;20039;-48
2021/11/19 02:57:04;;;;;;;2.58;1.35;;;17.80;69.90;;;;;;10563616;28;20020;-51
2021/11/19 03:02:11;;;;;;;1.60;1.08;;;17.80;70.20;;;;;;10563614;28;20024;-48
2021/11/19 03:07:12;;;;;;;1.42;0.88;;;17.70;70.30;;;;;;10581484;28;20039;-49
2021/11/19 03:12:20;;;;;;;2.95;1.42;;;17.70;70.60;;;;;;10581200;28;20089;-52
2021/11/19 03:17:23;;;;;;;1.27;0.88;;;17.70;70.70;;;;;;10581055;28;20024;-49
2021/11/19 03:22:28;;;;;;;1.55;0.98;;;17.70;70.40;;;;;;10573778;28;20093;-51
2021/11/19 03:27:30;;;;;;;1.70;0.98;;;17.70;71.00;;;;;;10562650;28;20111;-48
2021/11/19 03:32:32;;;;;;;2.75;1.05;;;17.70;70.60;;;;;;10579762;28;20047;-51
2021/11/19 03:37:33;;;;;;;2.60;1.27;;;17.60;70.60;;;;;;10562329;28;20028;-47
2021/11/19 03:42:34;;;;;;;1.48;0.93;;;17.60;70.70;;;;;;10580020;28;20532;-47
2021/11/19 03:47:41;;;;;;;2.05;1.02;;;17.50;70.80;;;;;;10561325;28;20080;-48
2021/11/19 03:52:43;;;;;;;1.33;0.70;;;17.60;70.80;;;;;;10561771;28;20023;-46
2021/11/19 03:57:45;;;;;;;1.67;0.82;;;17.60;70.40;;;;;;10561225;28;20397;-47
2021/11/19 04:02:46;;;;;;;1.73;0.95;;;17.70;70.30;;;;;;10561110;28;20038;-47
2021/11/19 04:07:47;;;;;;;2.25;0.95;;;17.70;70.30;;;;;;10579114;28;20028;-49
2021/11/19 04:12:48;;;;;;;3.60;0.88;;;17.80;69.90;;;;;;10578749;28;20483;-47
2021/11/19 04:17:49;;;;;;;1.10;0.75;;;17.80;69.80;;;;;;10578791;28;20085;-48
2021/11/19 04:22:50;;;;;;;1.63;0.90;;;17.80;69.90;;;;;;10571989;28;20027;-47
2021/11/19 04:27:52;;;;;;;1.90;0.90;;;17.80;69.90;;;;;;10578478;28;20433;-46
2021/11/19 04:32:54;;;;;;;1.88;1.13;;;17.70;70.00;;;;;;10578045;28;20039;-47
2021/11/19 04:37:54;;;;;;;2.00;0.93;;;17.70;70.10;;;;;;10577847;28;20503;-47
2021/11/19 04:42:55;;;;;;;1.65;1.02;;;17.60;70.20;;;;;;10560030;28;20126;-52
2021/11/19 04:47:56;;;;;;;1.52;0.90;;;17.70;70.00;;;;;;10555621;28;20070;-47
2021/11/19 04:52:57;;;;;;;2.05;1.00;;;17.70;70.00;;;;;;10567282;28;20031;-48
2021/11/19 04:57:59;;;;;;;2.72;1.20;;;17.70;70.00;;;;;;10577759;28;20031;-47
2021/11/19 05:03:00;;;;;;;2.60;1.30;;;17.70;70.20;;;;;;10578067;28;20030;-49
2021/11/19 05:08:02;;;;;;;2.88;1.02;;;17.60;70.30;;;;;;10577801;28;20115;-51
2021/11/19 05:13:06;;;;;;;1.42;0.70;;;17.60;70.10;;;;;;10559217;28;20024;-48
2021/11/19 05:18:07;;;;;;;1.80;0.98;;;17.70;69.80;;;;;;10559405;28;20031;-47
2021/11/19 05:23:09;;;;;;;1.80;0.90;;;17.80;69.60;;;;;;10559061;28;20101;-50
2021/11/19 05:28:14;;;;;;;2.92;1.05;;;17.80;69.30;;;;;;10577143;28;20026;-50
2021/11/19 05:33:18;;;;;;;1.40;0.60;;;17.90;69.20;;;;;;10576764;28;20483;-46
2021/11/19 05:38:23;;;;;;;1.13;0.73;;;17.90;69.30;;;;;;10577288;28;20043;-47
2021/11/19 05:43:25;;;;;;;1.08;0.43;;;17.90;69.00;;;;;;10576962;28;20039;-47
2021/11/19 05:48:26;;;;;;;1.90;0.88;;;18.10;68.70;;;;;;10568356;28;20024;-48
2021/11/19 05:53:27;;;;;;;2.20;0.93;;;18.30;68.00;;;;;;10576871;28;20027;-47
2021/11/19 05:58:28;;;;;;;1.13;0.65;;;18.40;68.10;;;;;;10577671;28;20024;-47
2021/11/19 06:03:30;;;;;;;1.13;0.68;;;18.40;67.40;;;;;;10570680;28;20043;-49
2021/11/19 06:08:30;;;;;;;6.18;1.15;;;18.50;67.20;;;;;;10573274;28;20039;-51
2021/11/19 06:13:48;;;;;;;2.75;1.30;;;18.50;67.50;;;;;;10556342;28;20406;-46
2021/11/19 06:18:55;;;;;;;7.20;1.25;;;18.60;67.80;;;;;;10574604;28;20042;-51
2021/11/19 06:24:03;;;;;;;2.60;0.80;;;18.70;68.50;;;;;;10558674;28;20031;-52
2021/11/19 06:29:04;;;;;;;2.63;1.42;;;18.70;68.20;;;;;;10565563;28;20382;-52
2021/11/19 06:34:05;;;;;;;4.43;0.80;;;18.80;68.20;;;;;;10565109;28;20379;-49
2021/11/19 06:39:06;;;;;;;1.95;1.10;;;18.80;68.60;;;;;;10564932;28;20024;-52
2021/11/19 06:44:08;;;;;;;4.53;1.08;;;18.70;69.10;;;;;;10548456;28;20031;-48
2021/11/19 06:49:10;;;;;;;2.50;0.85;;;18.70;68.80;;;;;;10568475;28;20028;-51
2021/11/19 06:54:11;;;;;;;5.03;1.13;;;18.70;68.90;;;;;;10565824;28;20041;-48
2021/11/19 06:59:12;;;;;;;10.15;1.45;;;18.80;68.80;;;;;;10584106;28;20033;-46
2021/11/19 07:04:13;;;;;;;11.10;1.30;;;19.00;68.40;;;;;;10582854;28;20468;-47
2021/11/19 07:09:18;;;;;;;15.38;2.17;;;18.90;68.60;;;;;;10564980;28;20027;-48
2021/11/19 07:14:19;;;;;;;18.98;2.17;;;18.80;69.40;;;;;;10579078;28;20036;-47
2021/11/19 07:19:20;;;;;;;18.13;2.60;;;18.70;69.10;;;;;;10561280;28;20579;-50
2021/11/19 07:24:21;;;;;;;11.23;2.17;;;18.70;69.50;;;;;;10581151;28;20058;-48
2021/11/19 07:29:22;;;;;;;12.73;1.85;;;18.80;69.10;;;;;;10561918;28;20032;-49
2021/11/19 07:34:23;;;;;;;10.77;1.77;;;18.70;69.50;;;;;;10560012;28;20043;-49
2021/11/19 07:39:24;;;;;;;13.73;2.17;;;18.70;69.50;;;;;;10580509;28;20114;-47
2021/11/19 07:44:25;;;;;;;11.95;1.83;;;18.70;70.00;;;;;;10562920;28;20447;-47
2021/11/19 07:49:25;;;;;;;8.35;1.83;;;18.70;70.40;;;;;;10581725;28;20040;-50
2021/11/19 07:54:26;;;;;;;10.23;2.60;;;18.60;70.80;;;;;;10581397;28;20023;-48
2021/11/19 07:59:30;;;;;;;10.98;2.47;;;18.60;71.10;;;;;;10581202;28;20031;-49
2021/11/19 08:04:33;;;;;;;5.88;2.10;;;18.50;71.10;;;;;;10581247;28;20023;-48
2021/11/19 08:09:34;;;;;;;13.15;2.17;;;18.60;71.30;;;;;;10580950;28;20036;-51
2021/11/19 08:14:35;;;;;;;9.32;2.42;;;18.50;71.70;;;;;;10563602;28;20061;-50
2021/11/19 08:19:44;;;;;;;12.18;3.20;;;18.50;72.20;;;;;;10559914;28;20402;-49
2021/11/19 08:24:47;;;;;;;9.80;2.27;;;18.40;72.30;;;;;;10571341;28;20082;-48
2021/11/19 08:29:51;;;;;;;10.90;2.83;;;18.40;72.40;;;;;;10578461;28;20020;-51
2021/11/19 08:34:54;;;;;;;6.43;2.50;;;18.40;72.70;;;;;;10560345;28;20518;-49
2021/11/19 08:39:55;;;;;;;8.95;2.00;;;18.30;72.90;;;;;;10578033;28;20085;-49
2021/11/19 08:44:56;;;;;;;9.05;2.08;;;18.40;73.20;;;;;;10578412;28;20583;-47
2021/11/19 08:50:01;;;;;;;6.47;1.65;;;18.40;73.10;;;;;;10576874;28;20042;-47
2021/11/19 08:55:06;;;;;;;10.20;2.58;;;18.40;73.10;;;;;;10560221;28;20035;-53
2021/11/19 09:00:16;;;;;;;12.50;2.45;;;18.40;73.00;;;;;;10577828;28;20419;-49
2021/11/19 09:05:16;;;;;;;11.82;2.40;;;18.40;73.20;;;;;;10560834;28;20118;-47
2021/11/19 09:10:18;;;;;;;7.53;2.13;;;18.30;73.10;;;;;;10558563;28;20038;-50
2021/11/19 09:15:23;;;;;;;9.55;2.47;;;18.40;73.60;;;;;;10541139;28;20035;-48
2021/11/19 09:20:50;;;;;;;12.95;2.38;;;18.40;73.20;;;;;;10559655;28;20024;-52
2021/11/19 09:25:55;;;;;;;14.00;2.30;;;18.40;73.20;;;;;;10555746;28;20039;-49
2021/11/19 09:31:00;;;;;;;10.23;2.00;;;18.40;73.10;;;;;;10584452;28;20038;-52
2021/11/19 09:36:04;;;;;;;9.55;1.92;;;18.30;73.00;;;;;;10566504;28;20078;-52
2021/11/19 09:41:43;;;;;;;5.47;1.52;;;18.20;72.90;;;;;;10566038;28;20422;-48
2021/11/19 09:47:22;;;;;;;6.35;2.17;;;18.20;73.00;;;;;;10584514;28;20027;-50
2021/11/19 09:53:10;;;;;;;4.70;1.90;;;18.20;73.00;;;;;;10584812;28;20073;-53
2021/11/19 09:58:50;;;;;;;6.47;1.48;;;18.20;73.20;;;;;;10568409;28;20490;-52
2021/11/19 10:04:29;;;;;;;4.67;2.80;;;18.30;72.90;;;;;;10576948;28;20040;-53
2021/11/19 10:10:02;;;;;;;5.85;1.92;;;18.30;72.70;;;;;;10498897;28;20039;-50
2021/11/19 10:15:14;;;;;;;6.35;1.75;;;18.20;72.80;;;;;;10583454;28;20024;-52
2021/11/19 10:20:23;;;;;;;6.00;1.50;;;18.20;72.80;;;;;;10583082;28;20069;-51
2021/11/19 10:25:56;;;;;;;3.22;1.63;;;18.30;72.50;;;;;;10577860;28;20035;-53
2021/11/19 10:31:00;;;;;;;9.63;1.80;;;18.20;72.40;;;;;;10584239;28;20023;-53
2021/11/19 10:36:27;;;;;;;9.48;1.80;;;18.20;72.50;;;;;;10565906;28;20086;-52
2021/11/19 10:42:21;;;;;;;9.80;2.35;;;18.30;72.50;;;;;;10577252;28;20039;-50
2021/11/19 10:47:58;;;;;;;7.90;1.95;;;18.40;72.50;;;;;;10583353;28;20028;-48
2021/11/19 10:53:47;;;;;;;7.30;1.67;;;18.40;73.00;;;;;;10561521;28;20032;-53
2021/11/19 10:58:57;;;;;;;6.13;1.35;;;18.60;72.60;;;;;;10565008;28;20023;-53
2021/11/19 11:04:29;;;;;;;3.60;1.52;;;18.80;72.20;;;;;;10582215;28;20081;-51
2021/11/19 11:09:38;;;;;;;6.88;2.63;;;18.90;71.70;;;;;;10582851;28;20360;-52
2021/11/19 11:14:43;;;;;;;6.95;1.70;;;19.10;71.20;;;;;;10583194;28;20055;-52
2021/11/19 11:19:47;;;;;;;6.07;1.65;;;19.30;70.80;;;;;;10582435;28;20027;-52
2021/11/19 11:24:53;;;;;;;3.72;1.50;;;19.40;71.00;;;;;;10563833;28;20039;-50
2021/11/19 11:30:25;;;;;;;5.38;1.40;;;19.50;70.80;;;;;;10580425;28;20063;-53
2021/11/19 11:35:31;;;;;;;6.47;1.70;;;19.50;70.40;;;;;;10578037;28;20043;-51
2021/11/19 11:41:20;;;;;;;3.20;1.52;;;19.40;70.20;;;;;;10581708;28;20045;-54
2021/11/19 11:46:37;;;;;;;12.63;2.20;;;19.50;70.00;;;;;;10564104;28;20114;-51
2021/11/19 11:52:16;;;;;;;9.07;1.77;;;19.60;69.70;;;;;;10565785;28;20065;-49
2021/11/19 11:57:28;;;;;;;11.82;1.77;;;19.70;69.50;;;;;;10580648;28;20039;-52
2021/11/19 12:03:29;;;;;;;7.78;1.77;;;19.80;69.50;;;;;;10577068;28;20040;-50
2021/11/19 12:09:21;;;;;;;6.40;1.88;;;19.70;69.80;;;;;;10578938;28;20031;-49
2021/11/19 12:14:48;;;;;;;12.18;2.15;;;19.70;69.70;;;;;;10563011;28;20388;-47
2021/11/19 12:20:08;;;;;;;12.48;1.60;;;19.60;69.80;;;;;;10578417;28;20076;-50
2021/11/19 12:25:55;;;;;;;7.88;1.73;;;19.70;69.50;;;;;;10556743;28;20028;-51
2021/11/19 12:31:41;;;;;;;8.93;2.35;;;19.70;69.40;;;;;;10531886;28;20070;-52
2021/11/19 12:36:55;;;;;;;13.65;1.98;;;19.80;69.50;;;;;;10561656;28;20039;-52
2021/11/19 12:42:07;;;;;;;13.32;1.77;;;19.80;69.40;;;;;;10561633;28;20034;-51
2021/11/19 12:47:29;;;;;;;11.40;1.63;;;19.80;69.30;;;;;;10543540;28;20044;-47
2021/11/19 12:53:14;;;;;;;7.80;1.67;;;19.80;69.30;;;;;;10574334;28;20034;-53
2021/11/19 12:59:05;;;;;;;10.07;1.60;;;19.80;69.10;;;;;;10558350;28;20506;-52
2021/11/19 13:04:33;;;;;;;12.80;1.80;;;19.80;69.20;;;;;;10587193;28;20059;-52
2021/11/19 13:09:49;;;;;;;7.57;1.58;;;19.80;69.30;;;;;;10569639;28;20506;-53
2021/11/19 13:15:15;;;;;;;6.32;1.38;;;19.80;69.20;;;;;;10587565;28;20020;-54
2021/11/19 13:20:57;;;;;;;11.50;1.77;;;19.90;69.20;;;;;;10586965;28;20107;-54
2021/11/19 13:26:20;;;;;;;16.60;2.95;;;19.90;69.20;;;;;;10574297;28;20032;-52
2021/11/19 13:31:21;;;;;;;13.20;2.70;;;19.90;70.00;;;;;;10575557;28;20036;-51
2021/11/19 13:36:43;;;;;;;10.93;2.17;;;20.00;69.50;;;;;;10585912;28;20756;-49
2021/11/19 13:42:07;;;;;;;11.50;2.22;;;20.00;69.60;;;;;;10586151;28;20033;-48
2021/11/19 13:47:36;;;;;;;10.70;2.30;;;20.00;69.40;;;;;;10574960;28;20047;-50
2021/11/19 13:53:02;;;;;;;5.30;1.38;;;19.90;70.00;;;;;;10572747;28;20059;-47
2021/11/19 13:58:30;;;;;;;7.97;1.73;;;20.00;69.80;;;;;;10559909;28;20032;-47
2021/11/19 14:03:31;;;;;;;6.38;1.63;;;20.00;70.10;;;;;;10584943;28;20031;-46
2021/11/19 14:08:32;;;;;;;7.35;1.40;;;19.90;70.30;;;;;;10584825;28;20023;-49
2021/11/19 14:13:41;;;;;;;4.65;1.25;;;19.90;70.50;;;;;;10583058;28;20031;-47
2021/11/19 14:18:50;;;;;;;6.75;1.48;;;19.90;70.60;;;;;;10555598;28;20031;-51
2021/11/19 14:24:17;;;;;;;8.32;2.38;;;19.90;71.00;;;;;;10577122;28;20031;-49
2021/11/19 14:29:28;;;;;;;12.57;1.98;;;19.90;70.60;;;;;;10567341;28;20065;-57
2021/11/19 14:34:45;;;;;;;9.88;1.80;;;19.80;70.60;;;;;;10584383;28;20526;-47
2021/11/19 14:39:49;;;;;;;7.82;1.92;;;19.80;70.70;;;;;;10566264;28;20497;-50
2021/11/19 14:45:05;;;;;;;9.98;2.25;;;19.80;70.70;;;;;;10583928;28;20036;-48
2021/11/19 14:51:04;;;;;;;8.88;2.30;;;19.80;70.80;;;;;;10583502;28;20023;-51
2021/11/19 14:56:14;;;;;;;10.55;2.00;;;19.90;70.80;;;;;;10565138;28;20036;-46
2021/11/19 15:01:19;;;;;;;14.38;2.25;;;19.80;71.00;;;;;;10565266;28;20488;-52
2021/11/19 15:06:40;;;;;;;14.18;2.97;;;19.80;70.70;;;;;;10565189;28;20035;-49
2021/11/19 15:11:55;;;;;;;6.70;1.48;;;19.70;70.10;;;;;;10565277;28;20046;-51
2021/11/19 15:17:18;;;;;;;7.70;1.77;;;19.80;70.20;;;;;;10583031;28;20483;-51
2021/11/19 15:22:21;;;;;;;7.65;2.35;;;19.80;70.10;;;;;;10567212;28;20467;-52
2021/11/19 15:27:38;;;;;;;8.60;1.73;;;19.70;70.10;;;;;;10581412;28;20035;-53
2021/11/19 15:32:52;;;;;;;9.25;2.03;;;19.70;70.10;;;;;;10564972;28;20051;-56
2021/11/19 15:38:14;;;;;;;6.63;1.95;;;19.70;70.00;;;;;;10558165;28;20116;-51
2021/11/19 15:43:18;;;;;;;7.90;2.22;;;19.70;70.00;;;;;;10571535;28;20386;-51
2021/11/19 15:48:24;;;;;;;9.30;1.60;;;19.80;70.70;;;;;;10581559;28;20477;-48
2021/11/19 15:53:51;;;;;;;9.48;2.00;;;19.80;70.90;;;;;;10563112;28;20028;-52
2021/11/19 15:59:10;;;;;;;10.88;2.05;;;19.80;71.00;;;;;;10563226;28;20102;-48
2021/11/19 16:04:49;;;;;;;8.35;2.20;;;19.70;71.60;;;;;;10562791;28;20425;-53
2021/11/19 16:10:30;;;;;;;11.30;2.35;;;19.50;71.40;;;;;;10577346;28;20107;-51
2021/11/19 16:15:32;;;;;;;7.40;2.10;;;19.40;72.20;;;;;;10580522;28;20055;-53
2021/11/19 16:20:33;;;;;;;11.38;2.22;;;19.30;71.70;;;;;;10562236;28;20055;-54
2021/11/19 16:25:35;;;;;;;10.93;2.05;;;19.10;71.90;;;;;;10561656;28;20031;-53
2021/11/19 16:30:41;;;;;;;11.63;2.45;;;19.00;72.10;;;;;;10568164;28;20058;-52
2021/11/19 16:35:43;;;;;;;6.75;1.85;;;18.90;72.40;;;;;;10564593;28;20403;-53
2021/11/19 16:40:51;;;;;;;16.25;2.72;;;18.90;72.50;;;;;;10539090;28;20365;-51
2021/11/19 16:45:53;;;;;;;11.38;2.10;;;18.80;72.60;;;;;;10539601;28;20184;-53
2021/11/19 16:50:59;;;;;;;18.08;7.15;;;18.80;73.60;;;;;;10550048;28;20024;-53
2021/11/19 16:56:01;;;;;;;15.15;3.78;;;18.70;73.50;;;;;;10577494;28;20027;-50
2021/11/19 17:01:10;;;;;;;27.05;11.43;;;18.70;73.50;;;;;;10538801;28;20119;-52
2021/11/19 17:06:14;;;;;;;16.67;4.95;;;18.70;74.50;;;;;;10553431;28;20560;-51
2021/11/19 17:11:14;;;;;;;12.73;3.75;;;18.80;73.10;;;;;;10556957;28;20448;-47
2021/11/19 17:16:17;;;;;;;13.18;4.10;;;18.80;72.30;;;;;;10562245;28;20027;-51
2021/11/19 17:21:27;;;;;;;15.98;3.67;;;18.90;75.10;;;;;;10564339;28;20110;-51
2021/11/19 17:26:29;;;;;;;13.82;3.60;;;19.10;75.10;;;;;;10560938;28;20038;-47
2021/11/19 17:31:30;;;;;;;10.23;3.25;;;19.20;73.70;;;;;;10566434;28;20116;-50
2021/11/19 17:36:31;;;;;;;14.05;4.20;;;19.10;75.30;;;;;;10535418;28;20026;-49
2021/11/19 17:41:32;;;;;;;15.18;3.95;;;19.10;75.00;;;;;;10578849;28;20016;-50
2021/11/19 17:46:39;;;;;;;13.65;3.85;;;19.00;75.40;;;;;;10563236;28;20035;-53
2021/11/19 17:51:42;;;;;;;16.05;4.05;;;19.00;74.60;;;;;;10568622;28;20091;-53
2021/11/19 17:56:52;;;;;;;12.05;3.38;;;18.90;74.70;;;;;;10567824;28;20035;-54
2021/11/19 18:01:54;;;;;;;25.17;5.03;;;18.90;74.60;;;;;;10565727;28;20031;-52
2021/11/19 18:06:55;;;;;;;18.50;3.72;;;18.80;74.40;;;;;;10586242;28;20027;-53
2021/11/19 18:12:00;;;;;;;14.70;3.08;;;18.80;74.60;;;;;;10567333;28;20387;-54
2021/11/19 18:17:07;;;;;;;14.02;3.20;;;18.70;74.60;;;;;;10585822;28;20031;-55
2021/11/19 18:22:14;;;;;;;15.07;2.90;;;18.70;74.60;;;;;;10585512;28;20028;-53
2021/11/19 18:27:21;;;;;;;14.73;3.13;;;18.60;74.60;;;;;;10585364;28;20101;-54
2021/11/19 18:32:29;;;;;;;9.70;2.97;;;18.60;74.60;;;;;;10555693;28;20379;-51
2021/11/19 18:37:33;;;;;;;13.10;2.60;;;18.50;74.60;;;;;;10567154;28;20027;-49
2021/11/19 18:42:34;;;;;;;9.30;2.88;;;18.50;74.60;;;;;;10565993;28;20020;-49
2021/11/19 18:47:35;;;;;;;10.80;2.95;;;18.40;74.60;;;;;;10563724;28;20506;-52
2021/11/19 18:52:38;;;;;;;7.97;3.08;;;18.40;74.70;;;;;;10563831;28;20052;-52
2021/11/19 18:57:39;;;;;;;8.20;2.13;;;18.50;75.20;;;;;;10564014;28;20020;-51
2021/11/19 19:02:41;;;;;;;9.00;2.85;;;18.40;74.50;;;;;;10541872;28;20432;-48
2021/11/19 19:07:43;;;;;;;5.43;2.55;;;18.30;74.50;;;;;;10533220;28;20028;-51
2021/11/19 19:12:44;;;;;;;12.18;2.85;;;18.30;74.50;;;;;;10551265;28;20631;-52
2021/11/19 19:17:46;;;;;;;10.60;2.85;;;18.30;74.50;;;;;;10569093;28;20019;-50
2021/11/19 19:22:47;;;;;;;9.38;4.18;;;18.30;74.50;;;;;;10548922;28;20027;-53
2021/11/19 19:27:48;;;;;;;7.22;2.90;;;18.20;74.40;;;;;;10562093;28;20459;-52
2021/11/19 19:32:50;;;;;;;6.43;2.30;;;18.20;74.40;;;;;;10557893;28;20043;-49
2021/11/19 19:37:53;;;;;;;5.82;2.10;;;18.20;74.40;;;;;;10562193;28;20033;-54
2021/11/19 19:42:59;;;;;;;7.53;2.55;;;18.20;74.40;;;;;;10582216;28;20123;-53
2021/11/19 19:48:05;;;;;;;10.88;2.50;;;18.20;74.50;;;;;;10582138;28;20609;-52
2021/11/19 19:53:06;;;;;;;9.35;2.75;;;18.20;74.50;;;;;;10564014;28;20042;-52
2021/11/19 19:58:11;;;;;;;6.20;2.25;;;18.10;74.30;;;;;;10581684;28;20027;-50
2021/11/19 20:03:11;;;;;;;6.30;2.60;;;18.10;74.20;;;;;;10581510;28;20480;-53
2021/11/19 20:08:12;;;;;;;3.38;1.70;;;18.10;74.40;;;;;;10563816;28;20111;-50
2021/11/19 20:13:14;;;;;;;4.90;2.72;;;18.00;74.40;;;;;;10556928;28;20039;-52
2021/11/19 20:18:21;;;;;;;5.47;2.17;;;18.00;74.40;;;;;;10579636;28;20028;-51
2021/11/19 20:23:25;;;;;;;7.50;1.92;;;18.00;74.40;;;;;;10579585;28;20114;-51
2021/11/19 20:28:29;;;;;;;7.13;1.88;;;18.00;74.50;;;;;;10559971;28;20271;-51
2021/11/19 20:33:39;;;;;;;6.50;1.60;;;18.00;74.50;;;;;;10575380;28;20101;-53
2021/11/19 20:38:41;;;;;;;5.07;1.58;;;17.90;74.50;;;;;;10576353;28;20090;-54
2021/11/19 20:43:42;;;;;;;5.10;1.60;;;17.90;74.50;;;;;;10558762;28;20031;-51
2021/11/19 20:48:45;;;;;;;5.10;1.70;;;17.90;74.60;;;;;;10545463;28;20487;-49
2021/11/19 20:53:50;;;;;;;6.32;2.10;;;17.90;74.70;;;;;;10570372;28;20437;-51
2021/11/19 20:58:52;;;;;;;8.20;2.15;;;17.90;74.70;;;;;;10575434;28;20177;-49
2021/11/19 21:03:54;;;;;;;6.75;1.88;;;17.80;74.60;;;;;;10577650;28;20114;-49
2021/11/19 21:08:57;;;;;;;4.45;2.67;;;17.80;74.50;;;;;;10559388;28;20440;-50
2021/11/19 21:13:59;;;;;;;2.97;1.70;;;17.80;74.60;;;;;;10559836;28;20119;-49
2021/11/19 21:18:59;;;;;;;3.95;1.55;;;17.80;74.60;;;;;;10577411;28;20024;-51
2021/11/19 21:24:02;;;;;;;3.72;1.30;;;17.80;74.50;;;;;;10565928;28;20032;-48
2021/11/19 21:29:04;;;;;;;4.18;1.70;;;17.80;74.50;;;;;;10585739;28;20027;-51
2021/11/19 21:34:09;;;;;;;2.90;1.15;;;17.80;74.60;;;;;;10585769;28;20039;-49
2021/11/19 21:39:11;;;;;;;5.00;2.13;;;17.70;74.50;;;;;;10585209;28;20034;-50
2021/11/19 21:44:22;;;;;;;4.88;1.92;;;17.70;74.50;;;;;;10566936;28;20102;-51
2021/11/19 21:49:23;;;;;;;3.20;1.63;;;17.70;74.40;;;;;;10567291;28;20027;-52
2021/11/19 21:54:40;;;;;;;5.70;1.65;;;17.70;74.50;;;;;;10584701;28;20152;-52
2021/11/19 21:59:44;;;;;;;3.50;1.73;;;17.70;74.50;;;;;;10584357;28;20055;-51
2021/11/19 22:04:48;;;;;;;3.75;1.40;;;17.70;74.50;;;;;;10566563;28;20028;-52
2021/11/19 22:09:57;;;;;;;4.03;1.50;;;17.70;74.40;;;;;;10584147;28;20617;-53
2021/11/19 22:14:58;;;;;;;4.40;2.10;;;17.70;74.50;;;;;;10583895;28;20042;-50
2021/11/19 22:19:59;;;;;;;3.72;1.67;;;17.60;74.50;;;;;;10583549;28;20111;-52
2021/11/19 22:25:00;;;;;;;4.57;1.50;;;17.60;74.50;;;;;;10565660;28;20024;-52
2021/11/19 22:30:01;;;;;;;6.05;1.88;;;17.60;74.50;;;;;;10564944;28;20028;-47
2021/11/19 22:35:03;;;;;;;5.10;1.52;;;17.60;74.50;;;;;;10581827;28;20044;-48
2021/11/19 22:40:14;;;;;;;2.97;1.30;;;17.60;74.50;;;;;;10572101;28;20074;-48
2021/11/19 22:45:18;;;;;;;3.35;1.77;;;17.60;74.50;;;;;;10582658;28;20077;-49
2021/11/19 22:50:38;;;;;;;2.03;1.23;;;17.60;74.40;;;;;;10564628;28;20038;-49
2021/11/19 22:55:43;;;;;;;2.70;1.00;;;17.60;74.40;;;;;;10582178;28;20097;-50
2021/11/19 23:00:58;;;;;;;1.88;1.15;;;17.60;74.40;;;;;;10564201;28;20444;-51
2021/11/19 23:05:59;;;;;;;4.25;1.23;;;17.60;74.40;;;;;;10581886;28;20399;-51
2021/11/19 23:11:12;;;;;;;2.97;1.73;;;17.50;74.40;;;;;;10563677;28;20028;-52
2021/11/19 23:16:28;;;;;;;3.65;1.33;;;17.60;74.40;;;;;;10563639;28;20059;-51
2021/11/19 23:21:48;;;;;;;2.67;1.48;;;17.60;74.40;;;;;;10556463;28;20028;-49
2021/11/19 23:26:49;;;;;;;3.15;1.23;;;17.50;74.30;;;;;;10568879;28;20490;-51
2021/11/19 23:32:07;;;;;;;2.75;1.05;;;17.50;74.30;;;;;;10580641;28;20043;-50
2021/11/19 23:37:11;;;;;;;2.15;1.00;;;17.50;74.40;;;;;;10580739;28;20077;-53
2021/11/19 23:42:17;;;;;;;4.60;1.40;;;17.50;74.30;;;;;;10580937;28;20039;-49
2021/11/19 23:47:21;;;;;;;3.03;1.13;;;17.50;74.30;;;;;;10580125;28;20038;-49
2021/11/19 23:52:26;;;;;;;3.28;1.25;;;17.50;74.30;;;;;;10566195;28;20060;-47
2021/11/19 23:57:28;;;;;;;2.65;1.23;;;17.50;74.20;;;;;;10561881;28;20523;-51
